sensor_id;sensor_type;location;lat;lon;timestamp;pressure;altitude;pressure_sealevel;temperature;humidity
84122;BME280;74217;51.106;17.084;2024-03-23T00:56:18;99551.88;;;9.05;85.03
84122;BME280;74217;51.106;17.084;2024-03-23T00:59:03;99550.47;;;9.15;84.75
84122;BME280;74217;51.106;17.084;2024-03-23T01:01:50;99545.22;;;9.15;84.37
84122;BME280;74217;51.106;17.084;2024-03-23T01:04:36;99542.91;;;9.09;85.00
84122;BME280;74217;51.106;17.084;2024-03-23T01:07:21;99540.44;;;9.06;85.54
84122;BME280;74217;51.106;17.084;2024-03-23T01:10:06;99542.16;;;9.07;84.44
84122;BME280;74217;51.106;17.084;2024-03-23T01:12:51;99526.47;;;9.06;84.29
84122;BME280;74217;51.106;17.084;2024-03-23T01:15:37;99523.00;;;9.05;85.25
84122;BME280;74217;51.106;17.084;2024-03-23T01:18:23;99524.41;;;9.12;83.51
84122;BME280;74217;51.106;17.084;2024-03-23T01:21:10;99515.91;;;9.07;83.25
84122;BME280;74217;51.106;17.084;2024-03-23T01:23:55;99519.38;;;9.08;83.57
84122;BME280;74217;51.106;17.084;2024-03-23T01:26:40;99509.66;;;9.10;84.08
84122;BME280;74217;51.106;17.084;2024-03-23T01:29:26;99501.16;;;9.05;83.85
84122;BME280;74217;51.106;17.084;2024-03-23T01:32:11;99495.16;;;9.03;84.36
84122;BME280;74217;51.106;17.084;2024-03-23T01:34:57;99488.09;;;9.03;84.27
84122;BME280;74217;51.106;17.084;2024-03-23T01:37:42;99484.56;;;9.04;83.76
84122;BME280;74217;51.106;17.084;2024-03-23T01:40:27;99472.53;;;9.00;83.58
84122;BME280;74217;51.106;17.084;2024-03-23T01:43:16;99467.28;;;9.00;84.62
84122;BME280;74217;51.106;17.084;2024-03-23T01:46:01;99463.97;;;8.97;84.26
84122;BME280;74217;51.106;17.084;2024-03-23T01:48:46;99449.97;;;8.96;83.98
84122;BME280;74217;51.106;17.084;2024-03-23T01:51:32;99445.91;;;8.91;83.15
84122;BME280;74217;51.106;17.084;2024-03-23T01:54:18;99442.41;;;8.90;83.01
84122;BME280;74217;51.106;17.084;2024-03-23T01:57:04;99446.03;;;8.88;83.97
84122;BME280;74217;51.106;17.084;2024-03-23T01:59:49;99442.59;;;8.87;83.12
84122;BME280;74217;51.106;17.084;2024-03-23T02:02:34;99441.66;;;8.88;83.56
84122;BME280;74217;51.106;17.084;2024-03-23T02:05:20;99436.41;;;8.88;83.29
84122;BME280;74217;51.106;17.084;2024-03-23T02:08:05;99442.34;;;8.92;83.17
84122;BME280;74217;51.106;17.084;2024-03-23T02:10:51;99433.72;;;8.90;82.93
84122;BME280;74217;51.106;17.084;2024-03-23T02:13:36;99433.47;;;8.94;82.52
84122;BME280;74217;51.106;17.084;2024-03-23T02:16:21;99423.13;;;8.91;82.92
84122;BME280;74217;51.106;17.084;2024-03-23T02:19:07;99421.06;;;8.98;83.14
84122;BME280;74217;51.106;17.084;2024-03-23T02:21:52;99410.63;;;8.96;82.40
84122;BME280;74217;51.106;17.084;2024-03-23T02:24:38;99410.19;;;8.88;82.55
84122;BME280;74217;51.106;17.084;2024-03-23T02:27:24;99403.16;;;8.89;82.22
84122;BME280;74217;51.106;17.084;2024-03-23T02:30:09;99399.69;;;8.88;82.96
84122;BME280;74217;51.106;17.084;2024-03-23T02:32:55;99393.75;;;8.85;82.97
84122;BME280;74217;51.106;17.084;2024-03-23T02:35:41;99390.88;;;8.89;81.59
84122;BME280;74217;51.106;17.084;2024-03-23T02:38:26;99390.06;;;8.89;82.07
84122;BME280;74217;51.106;17.084;2024-03-23T02:41:12;99396.00;;;8.92;81.51
84122;BME280;74217;51.106;17.084;2024-03-23T02:43:57;99393.44;;;8.91;82.17
84122;BME280;74217;51.106;17.084;2024-03-23T02:46:42;99391.56;;;8.93;81.93
84122;BME280;74217;51.106;17.084;2024-03-23T02:49:27;99382.09;;;8.90;82.58
84122;BME280;74217;51.106;17.084;2024-03-23T02:52:13;99378.69;;;8.88;82.91
84122;BME280;74217;51.106;17.084;2024-03-23T02:54:58;99374.53;;;8.84;82.58
84122;BME280;74217;51.106;17.084;2024-03-23T02:57:43;99373.59;;;8.85;82.42
84122;BME280;74217;51.106;17.084;2024-03-23T03:00:28;99365.66;;;8.87;82.77
84122;BME280;74217;51.106;17.084;2024-03-23T03:03:14;99356.84;;;8.88;82.36
84122;BME280;74217;51.106;17.084;2024-03-23T03:05:59;99355.09;;;8.88;82.84
84122;BME280;74217;51.106;17.084;2024-03-23T03:08:44;99355.94;;;8.89;82.67
84122;BME280;74217;51.106;17.084;2024-03-23T03:11:29;99354.16;;;8.89;82.32
84122;BME280;74217;51.106;17.084;2024-03-23T03:14:14;99348.22;;;8.86;82.72
84122;BME280;74217;51.106;17.084;2024-03-23T03:17:00;99349.78;;;8.90;82.95
84122;BME280;74217;51.106;17.084;2024-03-23T03:19:45;99339.50;;;8.85;83.02
84122;BME280;74217;51.106;17.084;2024-03-23T03:22:31;99338.41;;;8.89;82.36
84122;BME280;74217;51.106;17.084;2024-03-23T03:25:16;99336.03;;;8.85;82.30
84122;BME280;74217;51.106;17.084;2024-03-23T03:28:03;99336.34;;;8.79;83.09
84122;BME280;74217;51.106;17.084;2024-03-23T03:30:48;99328.41;;;8.80;82.44
84122;BME280;74217;51.106;17.084;2024-03-23T03:33:33;99328.56;;;8.77;83.23
84122;BME280;74217;51.106;17.084;2024-03-23T03:36:18;99319.63;;;8.81;83.12
84122;BME280;74217;51.106;17.084;2024-03-23T03:39:04;99315.69;;;8.73;84.41
84122;BME280;74217;51.106;17.084;2024-03-23T03:41:50;99315.50;;;8.76;82.79
84122;BME280;74217;51.106;17.084;2024-03-23T03:44:36;99316.06;;;8.82;83.63
84122;BME280;74217;51.106;17.084;2024-03-23T03:47:22;99319.63;;;8.81;82.94
84122;BME280;74217;51.106;17.084;2024-03-23T03:50:07;99322.16;;;8.83;82.18
84122;BME280;74217;51.106;17.084;2024-03-23T03:52:53;99308.13;;;8.84;83.04
84122;BME280;74217;51.106;17.084;2024-03-23T03:55:38;99304.81;;;8.80;82.80
84122;BME280;74217;51.106;17.084;2024-03-23T03:58:23;99303.88;;;8.81;83.07
84122;BME280;74217;51.106;17.084;2024-03-23T04:01:09;99298.63;;;8.81;82.52
84122;BME280;74217;51.106;17.084;2024-03-23T04:03:54;99303.09;;;8.79;82.43
84122;BME280;74217;51.106;17.084;2024-03-23T04:06:39;99294.53;;;8.76;83.71
84122;BME280;74217;51.106;17.084;2024-03-23T04:09:25;99300.72;;;8.75;83.29
84122;BME280;74217;51.106;17.084;2024-03-23T04:12:10;99292.78;;;8.76;83.61
84122;BME280;74217;51.106;17.084;2024-03-23T04:14:55;99290.31;;;8.73;83.73
84122;BME280;74217;51.106;17.084;2024-03-23T04:17:40;99291.31;;;8.71;83.02
84122;BME280;74217;51.106;17.084;2024-03-23T04:20:28;99297.25;;;8.74;83.26
84122;BME280;74217;51.106;17.084;2024-03-23T04:23:13;99298.94;;;8.75;83.25
84122;BME280;74217;51.106;17.084;2024-03-23T04:26:03;99297.31;;;8.73;82.99
84122;BME280;74217;51.106;17.084;2024-03-23T04:28:49;99307.88;;;8.71;84.38
84122;BME280;74217;51.106;17.084;2024-03-23T04:31:35;99304.66;;;8.66;84.16
84122;BME280;74217;51.106;17.084;2024-03-23T04:34:21;99297.72;;;8.65;83.74
84122;BME280;74217;51.106;17.084;2024-03-23T04:37:07;99299.41;;;8.66;82.71
84122;BME280;74217;51.106;17.084;2024-03-23T04:39:52;99297.63;;;8.67;83.20
84122;BME280;74217;51.106;17.084;2024-03-23T04:42:38;99293.31;;;8.66;83.38
84122;BME280;74217;51.106;17.084;2024-03-23T04:45:23;99296.03;;;8.64;83.82
84122;BME280;74217;51.106;17.084;2024-03-23T04:48:10;99285.53;;;8.64;82.91
84122;BME280;74217;51.106;17.084;2024-03-23T04:50:57;99282.22;;;8.61;83.04
84122;BME280;74217;51.106;17.084;2024-03-23T04:53:43;99290.09;;;8.61;83.46
84122;BME280;74217;51.106;17.084;2024-03-23T04:56:28;99278.88;;;8.57;83.46
84122;BME280;74217;51.106;17.084;2024-03-23T04:59:14;99278.03;;;8.57;82.71
84122;BME280;74217;51.106;17.084;2024-03-23T05:02:00;99268.38;;;8.57;83.14
84122;BME280;74217;51.106;17.084;2024-03-23T05:04:45;99269.31;;;8.56;83.07
84122;BME280;74217;51.106;17.084;2024-03-23T05:07:31;99264.16;;;8.55;82.81
84122;BME280;74217;51.106;17.084;2024-03-23T05:10:16;99264.16;;;8.55;82.94
84122;BME280;74217;51.106;17.084;2024-03-23T05:13:01;99260.78;;;8.53;82.89
84122;BME280;74217;51.106;17.084;2024-03-23T05:15:54;99263.63;;;8.48;82.53
84122;BME280;74217;51.106;17.084;2024-03-23T05:18:39;99261.91;;;8.47;83.24
84122;BME280;74217;51.106;17.084;2024-03-23T05:21:24;99263.63;;;8.48;83.29
84122;BME280;74217;51.106;17.084;2024-03-23T05:24:10;99263.47;;;8.51;83.52
84122;BME280;74217;51.106;17.084;2024-03-23T05:26:56;99265.47;;;8.46;82.76
84122;BME280;74217;51.106;17.084;2024-03-23T05:29:43;99258.69;;;8.42;84.02
84122;BME280;74217;51.106;17.084;2024-03-23T05:32:28;99250.34;;;8.34;83.33
84122;BME280;74217;51.106;17.084;2024-03-23T05:35:14;99247.66;;;8.36;83.94
84122;BME280;74217;51.106;17.084;2024-03-23T05:38:00;99246.66;;;8.38;84.01
84122;BME280;74217;51.106;17.084;2024-03-23T05:40:55;99243.72;;;8.44;83.90
84122;BME280;74217;51.106;17.084;2024-03-23T05:43:41;99240.94;;;8.47;83.27
84122;BME280;74217;51.106;17.084;2024-03-23T05:46:26;99238.19;;;8.50;83.56
84122;BME280;74217;51.106;17.084;2024-03-23T05:49:12;99237.25;;;8.51;83.90
84122;BME280;74217;51.106;17.084;2024-03-23T05:51:57;99230.13;;;8.53;83.29
84122;BME280;74217;51.106;17.084;2024-03-23T05:54:42;99229.06;;;8.57;83.72
84122;BME280;74217;51.106;17.084;2024-03-23T05:57:27;99231.41;;;8.63;84.07
84122;BME280;74217;51.106;17.084;2024-03-23T06:00:13;99228.53;;;8.68;83.53
84122;BME280;74217;51.106;17.084;2024-03-23T06:03:01;99220.34;;;8.74;83.70
84122;BME280;74217;51.106;17.084;2024-03-23T06:05:46;99216.03;;;8.73;84.50
84122;BME280;74217;51.106;17.084;2024-03-23T06:08:31;99209.59;;;8.78;84.33
84122;BME280;74217;51.106;17.084;2024-03-23T06:11:17;99203.34;;;8.81;84.00
84122;BME280;74217;51.106;17.084;2024-03-23T06:14:02;99209.94;;;8.88;84.41
84122;BME280;74217;51.106;17.084;2024-03-23T06:16:47;99224.22;;;8.99;83.89
84122;BME280;74217;51.106;17.084;2024-03-23T06:19:32;99224.63;;;9.07;82.62
84122;BME280;74217;51.106;17.084;2024-03-23T06:22:19;99230.16;;;9.18;82.67
84122;BME280;74217;51.106;17.084;2024-03-23T06:25:05;99233.38;;;9.23;82.37
84122;BME280;74217;51.106;17.084;2024-03-23T06:27:50;99241.81;;;9.28;81.95
84122;BME280;74217;51.106;17.084;2024-03-23T06:30:36;99240.88;;;9.29;81.78
84122;BME280;74217;51.106;17.084;2024-03-23T06:33:21;99230.38;;;9.29;81.68
84122;BME280;74217;51.106;17.084;2024-03-23T06:36:09;99218.72;;;9.35;82.29
84122;BME280;74217;51.106;17.084;2024-03-23T06:38:55;99212.53;;;9.36;81.30
84122;BME280;74217;51.106;17.084;2024-03-23T06:41:40;99187.16;;;9.36;82.27
84122;BME280;74217;51.106;17.084;2024-03-23T06:44:25;99179.00;;;9.25;82.90
84122;BME280;74217;51.106;17.084;2024-03-23T06:47:10;99176.19;;;9.28;82.62
84122;BME280;74217;51.106;17.084;2024-03-23T06:49:56;99171.72;;;9.30;83.03
84122;BME280;74217;51.106;17.084;2024-03-23T06:52:41;99162.94;;;9.31;83.49
84122;BME280;74217;51.106;17.084;2024-03-23T06:55:28;99167.22;;;9.32;82.77
84122;BME280;74217;51.106;17.084;2024-03-23T06:58:13;99165.81;;;9.42;83.15
84122;BME280;74217;51.106;17.084;2024-03-23T07:00:58;99162.22;;;9.59;81.34
84122;BME280;74217;51.106;17.084;2024-03-23T07:03:43;99162.06;;;9.76;81.97
84122;BME280;74217;51.106;17.084;2024-03-23T07:06:28;99154.31;;;9.88;81.22
84122;BME280;74217;51.106;17.084;2024-03-23T07:09:11;99149.50;;;9.96;80.22
84122;BME280;74217;51.106;17.084;2024-03-23T07:11:57;99135.25;;;10.14;80.67
84122;BME280;74217;51.106;17.084;2024-03-23T07:14:41;99130.59;;;10.33;78.34
84122;BME280;74217;51.106;17.084;2024-03-23T07:17:26;99118.00;;;10.38;79.05
84122;BME280;74217;51.106;17.084;2024-03-23T07:20:11;99108.63;;;10.48;77.12
84122;BME280;74217;51.106;17.084;2024-03-23T07:22:55;99113.31;;;10.57;78.06
84122;BME280;74217;51.106;17.084;2024-03-23T07:25:39;99114.59;;;10.64;77.13
84122;BME280;74217;51.106;17.084;2024-03-23T07:28:24;99091.69;;;10.66;77.27
84122;BME280;74217;51.106;17.084;2024-03-23T07:31:13;99089.03;;;10.80;77.30
84122;BME280;74217;51.106;17.084;2024-03-23T07:33:59;99085.50;;;10.93;77.02
84122;BME280;74217;51.106;17.084;2024-03-23T07:36:43;99080.31;;;11.06;75.28
84122;BME280;74217;51.106;17.084;2024-03-23T07:39:28;99075.97;;;11.19;73.98
84122;BME280;74217;51.106;17.084;2024-03-23T07:42:12;99076.88;;;11.32;72.29
84122;BME280;74217;51.106;17.084;2024-03-23T07:44:57;99063.47;;;11.35;73.21
84122;BME280;74217;51.106;17.084;2024-03-23T07:47:41;99056.06;;;11.54;69.96
84122;BME280;74217;51.106;17.084;2024-03-23T07:50:25;99058.91;;;11.51;72.79
84122;BME280;74217;51.106;17.084;2024-03-23T07:53:10;99057.75;;;11.67;72.27
84122;BME280;74217;51.106;17.084;2024-03-23T07:55:59;99032.25;;;11.80;70.40
84122;BME280;74217;51.106;17.084;2024-03-23T07:58:44;99028.69;;;11.94;69.48
84122;BME280;74217;51.106;17.084;2024-03-23T08:01:29;99014.13;;;12.01;71.21
84122;BME280;74217;51.106;17.084;2024-03-23T08:04:13;98998.50;;;12.10;69.34
84122;BME280;74217;51.106;17.084;2024-03-23T08:06:58;98999.38;;;12.11;69.85
84122;BME280;74217;51.106;17.084;2024-03-23T08:09:42;98990.28;;;12.15;68.68
84122;BME280;74217;51.106;17.084;2024-03-23T08:12:28;98998.72;;;12.20;69.58
84122;BME280;74217;51.106;17.084;2024-03-23T08:15:12;98998.50;;;12.23;68.30
84122;BME280;74217;51.106;17.084;2024-03-23T08:17:57;99002.31;;;12.19;70.43
84122;BME280;74217;51.106;17.084;2024-03-23T08:20:42;98987.78;;;12.13;68.86
84122;BME280;74217;51.106;17.084;2024-03-23T08:23:27;98987.63;;;12.15;69.66
84122;BME280;74217;51.106;17.084;2024-03-23T08:26:15;98980.78;;;12.25;69.78
84122;BME280;74217;51.106;17.084;2024-03-23T08:29:00;98979.72;;;12.27;67.99
84122;BME280;74217;51.106;17.084;2024-03-23T08:31:45;98966.03;;;12.35;65.98
84122;BME280;74217;51.106;17.084;2024-03-23T08:34:30;98946.78;;;12.45;66.84
84122;BME280;74217;51.106;17.084;2024-03-23T08:37:14;98936.09;;;12.47;66.79
84122;BME280;74217;51.106;17.084;2024-03-23T08:39:59;98939.06;;;12.66;65.32
84122;BME280;74217;51.106;17.084;2024-03-23T08:42:43;98937.34;;;12.77;66.30
84122;BME280;74217;51.106;17.084;2024-03-23T08:45:28;98930.63;;;13.08;65.09
84122;BME280;74217;51.106;17.084;2024-03-23T08:48:12;98927.06;;;13.20;64.29
84122;BME280;74217;51.106;17.084;2024-03-23T08:51:01;98913.38;;;13.26;65.56
84122;BME280;74217;51.106;17.084;2024-03-23T08:53:45;98898.75;;;13.33;65.04
84122;BME280;74217;51.106;17.084;2024-03-23T08:56:30;98889.38;;;13.18;63.60
84122;BME280;74217;51.106;17.084;2024-03-23T08:59:15;98903.84;;;13.12;65.15
84122;BME280;74217;51.106;17.084;2024-03-23T09:01:59;98916.25;;;13.12;65.10
84122;BME280;74217;51.106;17.084;2024-03-23T09:04:44;98900.63;;;13.09;66.54
84122;BME280;74217;51.106;17.084;2024-03-23T09:07:29;98894.03;;;13.14;63.28
84122;BME280;74217;51.106;17.084;2024-03-23T09:10:13;98891.38;;;13.03;64.31
84122;BME280;74217;51.106;17.084;2024-03-23T09:12:58;98877.16;;;12.93;64.65
84122;BME280;74217;51.106;17.084;2024-03-23T09:15:50;98854.78;;;12.75;63.69
84122;BME280;74217;51.106;17.084;2024-03-23T09:18:36;98854.56;;;12.78;64.15
84122;BME280;74217;51.106;17.084;2024-03-23T09:21:21;98859.09;;;12.65;65.25
84122;BME280;74217;51.106;17.084;2024-03-23T09:24:05;98839.03;;;12.63;65.06
84122;BME280;74217;51.106;17.084;2024-03-23T09:26:51;98836.91;;;12.68;65.20
84122;BME280;74217;51.106;17.084;2024-03-23T09:29:36;98837.34;;;12.62;65.95
84122;BME280;74217;51.106;17.084;2024-03-23T09:32:21;98828.53;;;12.50;67.72
84122;BME280;74217;51.106;17.084;2024-03-23T09:35:06;98837.66;;;12.46;67.72
84122;BME280;74217;51.106;17.084;2024-03-23T09:37:50;98821.38;;;12.52;65.61
84122;BME280;74217;51.106;17.084;2024-03-23T09:40:41;98817.16;;;12.50;65.11
84122;BME280;74217;51.106;17.084;2024-03-23T09:43:26;98806.44;;;12.40;66.70
84122;BME280;74217;51.106;17.084;2024-03-23T09:46:11;98796.25;;;12.47;66.79
84122;BME280;74217;51.106;17.084;2024-03-23T09:48:56;98796.09;;;12.72;65.75
84122;BME280;74217;51.106;17.084;2024-03-23T09:51:41;98787.63;;;12.90;65.94
84122;BME280;74217;51.106;17.084;2024-03-23T09:54:26;98783.00;;;13.05;66.04
84122;BME280;74217;51.106;17.084;2024-03-23T09:57:10;98770.50;;;13.07;65.97
84122;BME280;74217;51.106;17.084;2024-03-23T09:59:54;98768.31;;;13.34;61.90
84122;BME280;74217;51.106;17.084;2024-03-23T10:02:39;98765.69;;;13.34;62.39
84122;BME280;74217;51.106;17.084;2024-03-23T10:05:24;98747.44;;;13.31;63.66
84122;BME280;74217;51.106;17.084;2024-03-23T10:11:12;98735.81;;;13.33;63.42
84122;BME280;74217;51.106;17.084;2024-03-23T10:13:57;98733.28;;;13.32;64.99
84122;BME280;74217;51.106;17.084;2024-03-23T10:16:41;98723.81;;;13.51;64.43
84122;BME280;74217;51.106;17.084;2024-03-23T10:19:32;98715.69;;;13.75;61.15
84122;BME280;74217;51.106;17.084;2024-03-23T10:22:20;98716.53;;;13.75;62.88
84122;BME280;74217;51.106;17.084;2024-03-23T10:25:09;98708.63;;;13.96;61.60
84122;BME280;74217;51.106;17.084;2024-03-23T10:28:00;98708.56;;;14.18;61.03
84122;BME280;74217;51.106;17.084;2024-03-23T10:30:46;98698.78;;;14.50;61.50
84122;BME280;74217;51.106;17.084;2024-03-23T10:33:30;98702.66;;;14.66;60.07
84122;BME280;74217;51.106;17.084;2024-03-23T10:36:15;98700.44;;;14.92;58.61
84122;BME280;74217;51.106;17.084;2024-03-23T10:39:00;98699.19;;;14.96;59.99
84122;BME280;74217;51.106;17.084;2024-03-23T10:41:45;98688.50;;;15.07;60.29
84122;BME280;74217;51.106;17.084;2024-03-23T10:44:31;98682.41;;;15.16;59.23
84122;BME280;74217;51.106;17.084;2024-03-23T10:47:16;98686.91;;;15.25;59.96
84122;BME280;74217;51.106;17.084;2024-03-23T10:50:00;98681.97;;;15.11;59.04
84122;BME280;74217;51.106;17.084;2024-03-23T10:52:48;98677.34;;;15.03;59.90
84122;BME280;74217;51.106;17.084;2024-03-23T10:55:33;98677.75;;;14.99;57.31
84122;BME280;74217;51.106;17.084;2024-03-23T10:58:27;98667.66;;;14.93;59.25
84122;BME280;74217;51.106;17.084;2024-03-23T11:01:13;98663.72;;;14.87;59.95
84122;BME280;74217;51.106;17.084;2024-03-23T11:03:58;98653.53;;;14.83;60.08
84122;BME280;74217;51.106;17.084;2024-03-23T11:06:43;98643.06;;;14.81;60.99
84122;BME280;74217;51.106;17.084;2024-03-23T11:09:43;98640.81;;;14.77;60.73
84122;BME280;74217;51.106;17.084;2024-03-23T11:12:31;98634.03;;;14.84;60.55
84122;BME280;74217;51.106;17.084;2024-03-23T11:15:19;98638.13;;;14.97;60.29
84122;BME280;74217;51.106;17.084;2024-03-23T11:18:07;98628.84;;;15.22;57.27
84122;BME280;74217;51.106;17.084;2024-03-23T11:20:56;98621.34;;;15.27;59.83
84122;BME280;74217;51.106;17.084;2024-03-23T11:23:40;98622.44;;;15.24;58.62
84122;BME280;74217;51.106;17.084;2024-03-23T11:26:25;98613.59;;;15.35;55.12
84122;BME280;74217;51.106;17.084;2024-03-23T11:29:11;98610.97;;;15.54;55.02
84122;BME280;74217;51.106;17.084;2024-03-23T11:31:56;98606.63;;;15.62;56.61
84122;BME280;74217;51.106;17.084;2024-03-23T11:34:41;98600.75;;;15.78;52.08
84122;BME280;74217;51.106;17.084;2024-03-23T11:37:26;98602.84;;;15.84;53.31
84122;BME280;74217;51.106;17.084;2024-03-23T11:40:20;98580.94;;;15.82;53.20
84122;BME280;74217;51.106;17.084;2024-03-23T11:43:07;98586.81;;;15.76;52.11
84122;BME280;74217;51.106;17.084;2024-03-23T11:45:52;98575.09;;;15.69;53.00
84122;BME280;74217;51.106;17.084;2024-03-23T11:48:37;98567.69;;;15.63;52.56
84122;BME280;74217;51.106;17.084;2024-03-23T11:51:23;98569.78;;;15.50;53.76
84122;BME280;74217;51.106;17.084;2024-03-23T11:54:08;98562.38;;;15.44;51.87
84122;BME280;74217;51.106;17.084;2024-03-23T11:56:56;98566.16;;;15.41;51.93
84122;BME280;74217;51.106;17.084;2024-03-23T11:59:41;98573.84;;;15.35;52.26
84122;BME280;74217;51.106;17.084;2024-03-23T12:02:26;98582.31;;;15.29;51.11
84122;BME280;74217;51.106;17.084;2024-03-23T12:05:15;98596.22;;;15.12;51.06
84122;BME280;74217;51.106;17.084;2024-03-23T12:08:19;98608.75;;;15.10;50.66
84122;BME280;74217;51.106;17.084;2024-03-23T12:13:59;98608.97;;;14.88;56.82
84122;BME280;74217;51.106;17.084;2024-03-23T12:16:44;98603.59;;;14.69;57.09
84122;BME280;74217;51.106;17.084;2024-03-23T12:19:28;98610.06;;;14.55;56.99
84122;BME280;74217;51.106;17.084;2024-03-23T12:22:13;98615.75;;;14.51;55.98
84122;BME280;74217;51.106;17.084;2024-03-23T12:24:57;98611.22;;;14.62;53.13
84122;BME280;74217;51.106;17.084;2024-03-23T12:27:41;98609.00;;;14.67;51.33
84122;BME280;74217;51.106;17.084;2024-03-23T12:30:27;98608.59;;;14.72;51.05
84122;BME280;74217;51.106;17.084;2024-03-23T12:33:12;98604.78;;;14.55;53.16
84122;BME280;74217;51.106;17.084;2024-03-23T12:35:56;98619.09;;;14.53;51.95
84122;BME280;74217;51.106;17.084;2024-03-23T12:38:41;98599.84;;;14.41;51.77
84122;BME280;74217;51.106;17.084;2024-03-23T12:41:28;98595.56;;;14.29;53.55
84122;BME280;74217;51.106;17.084;2024-03-23T12:44:12;98573.88;;;14.35;50.88
84122;BME280;74217;51.106;17.084;2024-03-23T12:46:58;98588.03;;;14.25;53.54
84122;BME280;74217;51.106;17.084;2024-03-23T12:49:42;98591.06;;;14.20;54.19
84122;BME280;74217;51.106;17.084;2024-03-23T12:52:27;98618.75;;;14.16;53.79
84122;BME280;74217;51.106;17.084;2024-03-23T12:55:13;98603.06;;;14.04;53.75
84122;BME280;74217;51.106;17.084;2024-03-23T12:57:57;98617.00;;;14.06;52.49
84122;BME280;74217;51.106;17.084;2024-03-23T13:00:42;98625.69;;;13.97;55.26
84122;BME280;74217;51.106;17.084;2024-03-23T13:03:26;98640.59;;;13.77;54.61
84122;BME280;74217;51.106;17.084;2024-03-23T13:06:11;98636.53;;;13.62;55.64
84122;BME280;74217;51.106;17.084;2024-03-23T13:08:55;98653.91;;;13.76;53.14
84122;BME280;74217;51.106;17.084;2024-03-23T13:11:39;98705.25;;;13.62;54.63
84122;BME280;74217;51.106;17.084;2024-03-23T13:14:24;98718.88;;;13.14;56.15
84122;BME280;74217;51.106;17.084;2024-03-23T13:17:09;98736.63;;;12.68;57.09
84122;BME280;74217;51.106;17.084;2024-03-23T13:19:54;98744.03;;;12.28;58.62
84122;BME280;74217;51.106;17.084;2024-03-23T13:22:40;98758.47;;;12.12;59.02
84122;BME280;74217;51.106;17.084;2024-03-23T13:25:24;98760.31;;;11.75;61.77
84122;BME280;74217;51.106;17.084;2024-03-23T13:28:09;98756.19;;;11.48;62.37
84122;BME280;74217;51.106;17.084;2024-03-23T13:30:56;98759.69;;;11.36;63.05
84122;BME280;74217;51.106;17.084;2024-03-23T13:33:48;98754.47;;;10.86;65.80
84122;BME280;74217;51.106;17.084;2024-03-23T13:36:32;98784.03;;;10.65;67.24
84122;BME280;74217;51.106;17.084;2024-03-23T13:39:17;98797.84;;;10.42;68.58
84122;BME280;74217;51.106;17.084;2024-03-23T13:42:01;98818.44;;;10.35;66.58
84122;BME280;74217;51.106;17.084;2024-03-23T13:44:48;98822.63;;;10.25;67.83
84122;BME280;74217;51.106;17.084;2024-03-23T13:47:34;98835.53;;;10.42;65.25
84122;BME280;74217;51.106;17.084;2024-03-23T13:50:18;98788.84;;;10.46;65.24
84122;BME280;74217;51.106;17.084;2024-03-23T13:53:03;98839.78;;;10.31;65.04
84122;BME280;74217;51.106;17.084;2024-03-23T13:55:48;98848.44;;;9.92;67.05
84122;BME280;74217;51.106;17.084;2024-03-23T13:58:33;98868.81;;;9.89;67.42
84122;BME280;74217;51.106;17.084;2024-03-23T14:01:18;98899.50;;;9.74;67.36
84122;BME280;74217;51.106;17.084;2024-03-23T14:04:03;98936.44;;;9.57;67.77
84122;BME280;74217;51.106;17.084;2024-03-23T14:06:48;98907.94;;;9.23;68.41
84122;BME280;74217;51.106;17.084;2024-03-23T14:09:32;98905.84;;;9.14;68.62
84122;BME280;74217;51.106;17.084;2024-03-23T14:12:17;98932.06;;;9.00;69.50
84122;BME280;74217;51.106;17.084;2024-03-23T14:15:03;98966.69;;;8.91;68.31
84122;BME280;74217;51.106;17.084;2024-03-23T14:17:49;98974.59;;;8.60;67.52
84122;BME280;74217;51.106;17.084;2024-03-23T14:20:33;98979.81;;;8.45;68.50
84122;BME280;74217;51.106;17.084;2024-03-23T14:23:19;98969.78;;;8.37;67.85
84122;BME280;74217;51.106;17.084;2024-03-23T14:26:06;99015.16;;;8.22;68.00
84122;BME280;74217;51.106;17.084;2024-03-23T14:28:51;99019.38;;;8.09;67.75
84122;BME280;74217;51.106;17.084;2024-03-23T14:31:35;99033.75;;;7.85;68.13
84122;BME280;74217;51.106;17.084;2024-03-23T14:34:20;99043.66;;;7.80;67.85
84122;BME280;74217;51.106;17.084;2024-03-23T14:37:04;99067.84;;;7.51;70.52
84122;BME280;74217;51.106;17.084;2024-03-23T14:39:50;99056.44;;;7.35;68.26
84122;BME280;74217;51.106;17.084;2024-03-23T14:42:35;99083.81;;;7.11;67.66
84122;BME280;74217;51.106;17.084;2024-03-23T14:45:20;99050.88;;;7.07;66.82
84122;BME280;74217;51.106;17.084;2024-03-23T14:48:05;99065.28;;;6.97;68.79
84122;BME280;74217;51.106;17.084;2024-03-23T14:50:56;99069.13;;;6.90;67.67
84122;BME280;74217;51.106;17.084;2024-03-23T14:53:44;99076.97;;;6.90;68.84
84122;BME280;74217;51.106;17.084;2024-03-23T14:56:29;99110.19;;;6.88;70.39
84122;BME280;74217;51.106;17.084;2024-03-23T14:59:14;99095.72;;;6.81;71.30
84122;BME280;74217;51.106;17.084;2024-03-23T15:01:58;99114.44;;;6.72;68.87
84122;BME280;74217;51.106;17.084;2024-03-23T15:04:43;99120.63;;;6.70;68.92
84122;BME280;74217;51.106;17.084;2024-03-23T15:07:28;99125.38;;;6.43;69.26
84122;BME280;74217;51.106;17.084;2024-03-23T15:10:12;99118.53;;;6.41;70.00
84122;BME280;74217;51.106;17.084;2024-03-23T15:12:58;99116.47;;;6.29;70.37
84122;BME280;74217;51.106;17.084;2024-03-23T15:15:43;99117.41;;;6.46;70.20
84122;BME280;74217;51.106;17.084;2024-03-23T15:18:35;99129.19;;;6.55;70.08
84122;BME280;74217;51.106;17.084;2024-03-23T15:21:20;99123.84;;;6.58;69.65
84122;BME280;74217;51.106;17.084;2024-03-23T15:24:06;99128.72;;;6.47;71.05
84122;BME280;74217;51.106;17.084;2024-03-23T15:26:50;99145.69;;;6.37;70.33
84122;BME280;74217;51.106;17.084;2024-03-23T15:29:36;99138.06;;;6.32;70.82
84122;BME280;74217;51.106;17.084;2024-03-23T15:32:20;99146.69;;;6.34;71.06